Time;durP1;ratioP1;P1;durP2;ratioP2;P2;SDS_P1;SDS_P2;PMS_P1;PMS_P2;Temp;Humidity;BMP_temperature;BMP_pressure;BME280_temperature;BME280_humidity;BME280_pressure;Samples;Min_cycle;Max_cycle;Signal;HPM_P1;HPM_P2
2022/09/29 00:01:37;;;;;;;;;;;410.40;2355.20;;;;;;5094461;28;19931;-58
2022/09/29 00:04:03;;;;;;;;;;;410.50;2355.20;;;;;;5093937;28;19920;-59
2022/09/29 00:06:29;;;;;;;;;;;410.30;2355.20;;;;;;5094339;28;19920;-58
2022/09/29 00:08:54;;;;;;;;;;;410.20;2355.20;;;;;;5094283;28;19919;-57
2022/09/29 00:11:20;;;;;;;;;;;410.20;2355.20;;;;;;5094690;28;19969;-58
2022/09/29 00:13:46;;;;;;;;;;;410.00;2355.20;;;;;;5094263;28;20346;-58
2022/09/29 00:16:12;;;;;;;;;;;410.00;2355.20;;;;;;5094137;28;19939;-59
2022/09/29 00:18:38;;;;;;;;;;;410.00;2355.20;;;;;;5094073;28;19915;-58
2022/09/29 00:21:05;;;;;;;;;;;410.00;2355.20;;;;;;5093981;28;19909;-58
2022/09/29 00:23:32;;;;;;;;;;;410.00;2355.20;;;;;;5094136;28;19919;-59
2022/09/29 00:26:18;;;;;;;;;;;410.00;2355.20;;;;;;5094221;28;19912;-59
2022/09/29 00:28:56;;;;;;;;;;;410.00;2355.20;;;;;;5093444;28;20365;-59
2022/09/29 00:31:26;;;;;;;;;;;410.00;2355.20;;;;;;5093622;28;19961;-59
2022/09/29 00:33:52;;;;;;;;;;;410.00;2355.20;;;;;;5093492;28;20373;-59
2022/09/29 00:36:18;;;;;;;;;;;410.10;2355.20;;;;;;5093974;28;19912;-59
2022/09/29 00:38:46;;;;;;;;;;;410.10;2355.20;;;;;;5093605;28;19962;-58
2022/09/29 00:41:20;;;;;;;;;;;410.00;2355.20;;;;;;5093810;28;19935;-59
2022/09/29 00:43:54;;;;;;;;;;;410.00;2355.20;;;;;;5093575;28;19970;-59
2022/09/29 00:46:27;;;;;;;;;;;410.00;2355.20;;;;;;5093697;28;20272;-57
2022/09/29 00:48:54;;;;;;;;;;;409.90;2355.20;;;;;;5093651;28;19914;-58
2022/09/29 00:51:20;;;;;;;;;;;409.90;2355.20;;;;;;5093786;28;19908;-58
2022/09/29 00:53:46;;;;;;;;;;;409.90;2355.20;;;;;;5093419;28;19908;-58
2022/09/29 00:56:13;;;;;;;;;;;410.00;2355.20;;;;;;5093465;28;19948;-59
2022/09/29 00:58:46;;;;;;;;;;;410.00;2355.20;;;;;;5093398;28;19908;-58
2022/09/29 01:01:12;;;;;;;;;;;409.90;2355.20;;;;;;5092645;28;19965;-58
2022/09/29 01:03:41;;;;;;;;;;;409.90;2355.20;;;;;;5092679;28;20304;-58
2022/09/29 01:06:11;;;;;;;;;;;409.90;2355.20;;;;;;5093161;28;19959;-58
2022/09/29 01:08:41;;;;;;;;;;;409.90;2355.20;;;;;;5093073;28;19915;-58
2022/09/29 01:11:08;;;;;;;;;;;409.90;2355.20;;;;;;5093136;28;19908;-59
2022/09/29 01:13:34;;;;;;;;;;;410.00;2355.20;;;;;;5092872;28;19953;-58
2022/09/29 01:16:00;;;;;;;;;;;410.00;2355.20;;;;;;5092964;28;20300;-58
2022/09/29 01:18:26;;;;;;;;;;;410.00;2355.20;;;;;;5093076;28;19930;-59
2022/09/29 01:20:54;;;;;;;;;;;410.00;2355.20;;;;;;5093132;28;19913;-58
2022/09/29 01:23:26;;;;;;;;;;;410.00;2355.20;;;;;;5093340;28;19943;-58
2022/09/29 01:26:09;;;;;;;;;;;410.10;2355.20;;;;;;5092916;28;19959;-58
2022/09/29 01:28:47;;;;;;;;;;;410.20;2355.20;;;;;;5092616;28;19916;-58
2022/09/29 01:31:33;;;;;;;;;;;410.30;2355.20;;;;;;5092589;28;19943;-59
2022/09/29 01:34:19;;;;;;;;;;;410.40;2355.20;;;;;;5088532;28;19965;-58
2022/09/29 01:36:52;;;;;;;;;;;410.50;2355.20;;;;;;5069983;28;19935;-59
2022/09/29 01:39:40;;;;;;;;;;;410.50;2355.20;;;;;;5070234;28;19908;-59
2022/09/29 01:42:07;;;;;;;;;;;410.30;2355.20;;;;;;5069948;28;20007;-59
2022/09/29 01:44:33;;;;;;;;;;;410.00;2355.20;;;;;;5069871;28;19916;-59
2022/09/29 01:47:02;;;;;;;;;;;409.70;2355.20;;;;;;5070160;28;19917;-59
2022/09/29 01:49:30;;;;;;;;;;;409.60;2355.20;;;;;;5069858;28;19998;-58
2022/09/29 01:51:59;;;;;;;;;;;409.60;2355.20;;;;;;5069905;28;20003;-58
2022/09/29 01:54:29;;;;;;;;;;;409.60;2355.20;;;;;;5069587;28;19954;-58
2022/09/29 01:57:06;;;;;;;;;;;384.80;2329.60;;;;;;5069855;28;19912;-58
2022/09/29 01:59:42;;;;;;;;;;;384.70;2329.60;;;;;;5069689;28;19929;-57
2022/09/29 02:02:13;;;;;;;;;;;384.80;2329.60;;;;;;5069897;28;19912;-57
2022/09/29 02:04:44;;;;;;;;;;;384.90;2329.60;;;;;;5069584;28;19920;-57
2022/09/29 02:07:13;;;;;;;;;;;409.60;2355.20;;;;;;5069657;28;19974;-58
2022/09/29 02:09:41;;;;;;;;;;;409.60;2355.20;;;;;;5069556;28;20290;-58
2022/09/29 02:12:08;;;;;;;;;;;409.70;2355.20;;;;;;5069642;28;19916;-57
2022/09/29 02:14:36;;;;;;;;;;;409.80;2355.20;;;;;;5087133;28;19914;-58
2022/09/29 02:17:23;;;;;;;;;;;409.70;2355.20;;;;;;5091820;28;20358;-58
2022/09/29 02:19:50;;;;;;;;;;;409.60;2355.20;;;;;;5092099;28;19908;-58
2022/09/29 02:22:16;;;;;;;;;;;409.60;2355.20;;;;;;5091786;28;19908;-58
2022/09/29 02:24:42;;;;;;;;;;;384.80;2329.60;;;;;;5091703;28;19993;-59
2022/09/29 02:27:08;;;;;;;;;;;384.80;2329.60;;;;;;5091746;28;20358;-58
2022/09/29 02:29:35;;;;;;;;;;;384.80;2329.60;;;;;;5091434;28;19908;-58
2022/09/29 02:32:01;;;;;;;;;;;384.90;2329.60;;;;;;5091811;28;19908;-58
2022/09/29 02:34:30;;;;;;;;;;;384.90;2329.60;;;;;;5091699;28;19951;-58
2022/09/29 02:36:55;;;;;;;;;;;384.90;2329.60;;;;;;5091571;28;19949;-58
2022/09/29 02:39:33;;;;;;;;;;;384.80;2329.60;;;;;;5091481;28;19908;-58
2022/09/29 02:42:05;;;;;;;;;;;384.90;2329.60;;;;;;5091527;28;19961;-58
2022/09/29 02:44:37;;;;;;;;;;;409.60;2355.20;;;;;;5091397;28;20019;-58
2022/09/29 02:47:18;;;;;;;;;;;409.60;2355.20;;;;;;5091233;28;20014;-58
2022/09/29 02:50:06;;;;;;;;;;;409.60;2355.20;;;;;;5091144;28;20376;-59
2022/09/29 02:52:50;;;;;;;;;;;409.60;2355.20;;;;;;5091135;28;19912;-58
2022/09/29 02:55:16;;;;;;;;;;;409.60;2355.20;;;;;;5091027;28;20358;-58
2022/09/29 02:57:41;;;;;;;;;;;409.70;2355.20;;;;;;5091109;28;19912;-58
2022/09/29 03:00:09;;;;;;;;;;;409.70;2355.20;;;;;;5091158;28;19954;-58
2022/09/29 03:02:40;;;;;;;;;;;409.70;2355.20;;;;;;5090783;28;19944;-58
2022/09/29 03:05:08;;;;;;;;;;;409.60;2355.20;;;;;;5090725;28;19959;-59
2022/09/29 03:07:34;;;;;;;;;;;409.60;2355.20;;;;;;5090765;28;20369;-58
2022/09/29 03:10:00;;;;;;;;;;;384.90;2329.60;;;;;;5090998;28;19908;-58
2022/09/29 03:12:25;;;;;;;;;;;409.60;2355.20;;;;;;5091021;28;19909;-58
2022/09/29 03:14:51;;;;;;;;;;;409.60;2355.20;;;;;;5091049;28;20266;-57
2022/09/29 03:17:17;;;;;;;;;;;409.60;2355.20;;;;;;5090986;28;20282;-58
2022/09/29 03:19:42;;;;;;;;;;;409.60;2355.20;;;;;;5090774;28;20392;-58
2022/09/29 03:22:08;;;;;;;;;;;409.70;2355.20;;;;;;5090921;28;19948;-58
2022/09/29 03:24:34;;;;;;;;;;;409.70;2355.20;;;;;;5089802;28;19909;-58
2022/09/29 03:27:00;;;;;;;;;;;409.60;2355.20;;;;;;5090711;28;19916;-58
2022/09/29 03:29:26;;;;;;;;;;;409.60;2355.20;;;;;;5090705;28;19914;-58
2022/09/29 03:31:51;;;;;;;;;;;409.70;2355.20;;;;;;5090701;28;20273;-58
2022/09/29 03:34:17;;;;;;;;;;;409.70;2355.20;;;;;;5090764;28;19958;-58
2022/09/29 03:36:42;;;;;;;;;;;409.60;2355.20;;;;;;5090568;28;19912;-58
2022/09/29 03:39:08;;;;;;;;;;;409.70;2355.20;;;;;;5090598;28;19961;-58
2022/09/29 03:41:33;;;;;;;;;;;409.60;2355.20;;;;;;5090571;28;19955;-58
2022/09/29 03:43:59;;;;;;;;;;;409.60;2355.20;;;;;;5090770;28;20323;-58
2022/09/29 03:46:24;;;;;;;;;;;409.60;2355.20;;;;;;5090462;28;19947;-58
2022/09/29 03:48:50;;;;;;;;;;;409.60;2355.20;;;;;;5090848;28;19908;-58
2022/09/29 03:51:16;;;;;;;;;;;409.70;2355.20;;;;;;5090311;28;19957;-58
2022/09/29 03:53:41;;;;;;;;;;;409.70;2355.20;;;;;;5090731;28;19912;-58
2022/09/29 03:56:07;;;;;;;;;;;409.70;2355.20;;;;;;5090572;28;20269;-57
2022/09/29 03:58:33;;;;;;;;;;;409.70;2355.20;;;;;;5090312;28;20285;-58
2022/09/29 04:00:58;;;;;;;;;;;409.60;2355.20;;;;;;5090545;28;19908;-58
2022/09/29 04:03:24;;;;;;;;;;;409.60;2355.20;;;;;;5090279;28;19987;-58
2022/09/29 04:05:49;;;;;;;;;;;409.60;2355.20;;;;;;5090455;28;19939;-58
2022/09/29 04:08:15;;;;;;;;;;;409.60;2355.20;;;;;;5090350;28;20239;-58
2022/09/29 04:10:40;;;;;;;;;;;384.90;2329.60;;;;;;5090691;28;19980;-58
2022/09/29 04:13:07;;;;;;;;;;;384.90;2329.60;;;;;;5090332;28;20376;-58
2022/09/29 04:15:32;;;;;;;;;;;409.60;2355.20;;;;;;5090323;28;19908;-57
2022/09/29 04:17:58;;;;;;;;;;;409.60;2355.20;;;;;;5090516;28;20354;-58
2022/09/29 04:20:24;;;;;;;;;;;384.90;2329.60;;;;;;5090264;28;19909;-59
2022/09/29 04:22:49;;;;;;;;;;;384.80;2329.60;;;;;;5090393;28;19909;-57
2022/09/29 04:25:15;;;;;;;;;;;384.80;2329.60;;;;;;5090299;28;19960;-58
2022/09/29 04:27:41;;;;;;;;;;;384.70;2329.60;;;;;;5090282;28;20289;-57
2022/09/29 04:30:07;;;;;;;;;;;384.80;2329.60;;;;;;5089522;28;19991;-57
2022/09/29 04:32:32;;;;;;;;;;;384.80;2329.60;;;;;;5090103;28;19916;-59
2022/09/29 04:34:58;;;;;;;;;;;384.90;2329.60;;;;;;5090016;28;19948;-58
2022/09/29 04:37:23;;;;;;;;;;;384.90;2329.60;;;;;;5092843;28;19913;-59
2022/09/29 04:39:51;;;;;;;;;;;384.90;2329.60;;;;;;5092656;28;19908;-57
2022/09/29 04:42:17;;;;;;;;;;;409.60;2355.20;;;;;;5093983;28;19988;-58
2022/09/29 04:44:42;;;;;;;;;;;409.70;2355.20;;;;;;5093661;28;20374;-59
2022/09/29 04:47:08;;;;;;;;;;;409.70;2355.20;;;;;;5093775;28;20324;-58
2022/09/29 04:49:33;;;;;;;;;;;409.70;2355.20;;;;;;5092632;28;20323;-58
2022/09/29 04:51:59;;;;;;;;;;;409.70;2355.20;;;;;;5093736;28;19909;-58
2022/09/29 04:54:24;;;;;;;;;;;409.60;2355.20;;;;;;5093364;28;20288;-58
2022/09/29 04:56:50;;;;;;;;;;;409.60;2355.20;;;;;;5093628;28;20342;-58
2022/09/29 04:59:18;;;;;;;;;;;409.60;2355.20;;;;;;5093498;28;20380;-58
2022/09/29 05:01:44;;;;;;;;;;;409.70;2355.20;;;;;;5093255;28;19914;-58
2022/09/29 05:04:12;;;;;;;;;;;409.70;2355.20;;;;;;5093113;28;19967;-58
2022/09/29 05:06:38;;;;;;;;;;;409.80;2355.20;;;;;;5093207;28;19981;-58
2022/09/29 05:09:04;;;;;;;;;;;409.80;2355.20;;;;;;5092973;28;19915;-59
2022/09/29 05:11:30;;;;;;;;;;;409.80;2355.20;;;;;;5093310;28;19908;-58
2022/09/29 05:13:55;;;;;;;;;;;409.80;2355.20;;;;;;5093171;28;19908;-58
2022/09/29 05:16:21;;;;;;;;;;;409.90;2355.20;;;;;;5093249;28;19912;-57
2022/09/29 05:18:46;;;;;;;;;;;409.90;2355.20;;;;;;5092952;28;20425;-57
2022/09/29 05:21:12;;;;;;;;;;;409.90;2355.20;;;;;;5092781;28;19919;-58
2022/09/29 05:23:38;;;;;;;;;;;410.00;2355.20;;;;;;5092862;28;19939;-58
2022/09/29 05:26:05;;;;;;;;;;;410.00;2355.20;;;;;;5092869;28;19955;-58
2022/09/29 05:28:30;;;;;;;;;;;410.00;2355.20;;;;;;5092822;28;19908;-57
2022/09/29 05:31:00;;;;;;;;;;;410.00;2355.20;;;;;;5092792;28;19909;-58
2022/09/29 05:33:26;;;;;;;;;;;410.00;2355.20;;;;;;5092506;28;19963;-66
2022/09/29 05:35:51;;;;;;;;;;;410.00;2355.20;;;;;;5092912;28;19962;-69
2022/09/29 05:38:17;;;;;;;;;;;409.90;2355.20;;;;;;5092695;28;19908;-64
2022/09/29 05:40:42;;;;;;;;;;;409.70;2355.20;;;;;;5092340;28;19954;-66
2022/09/29 05:43:08;;;;;;;;;;;409.60;2355.20;;;;;;5092495;28;20041;-70
2022/09/29 05:45:33;;;;;;;;;;;409.70;2355.20;;;;;;5092311;28;19962;-61
2022/09/29 05:47:59;;;;;;;;;;;409.90;2355.20;;;;;;5091955;28;19978;-67
2022/09/29 05:50:24;;;;;;;;;;;409.90;2355.20;;;;;;5092452;28;20381;-64
2022/09/29 05:52:51;;;;;;;;;;;409.90;2355.20;;;;;;5092558;28;19953;-66
2022/09/29 05:55:17;;;;;;;;;;;409.90;2355.20;;;;;;5092398;28;19909;-68
2022/09/29 05:57:46;;;;;;;;;;;410.00;2355.20;;;;;;5092377;28;19915;-65
2022/09/29 06:00:12;;;;;;;;;;;410.10;2355.20;;;;;;5092265;28;19923;-62
2022/09/29 06:02:37;;;;;;;;;;;410.10;2355.20;;;;;;5092067;28;19908;-64
2022/09/29 06:05:04;;;;;;;;;;;409.90;2355.20;;;;;;5091971;28;19996;-64
2022/09/29 06:07:29;;;;;;;;;;;410.00;2355.20;;;;;;5092086;28;20404;-68
2022/09/29 06:09:55;;;;;;;;;;;410.20;2355.20;;;;;;5091852;28;19999;-65
2022/09/29 06:12:20;;;;;;;;;;;410.20;2355.20;;;;;;5092077;28;19908;-67
2022/09/29 06:14:46;;;;;;;;;;;410.30;2355.20;;;;;;5092076;28;19961;-71
2022/09/29 06:17:12;;;;;;;;;;;410.30;2355.20;;;;;;5091648;28;19955;-62
2022/09/29 06:19:38;;;;;;;;;;;410.50;2355.20;;;;;;5091801;28;19909;-65
2022/09/29 06:22:03;;;;;;;;;;;435.20;2355.20;;;;;;5091620;28;19908;-64
2022/09/29 06:24:29;;;;;;;;;;;435.30;2355.20;;;;;;5091741;28;19954;-70
2022/09/29 06:26:54;;;;;;;;;;;435.30;2355.20;;;;;;5091441;28;20010;-61
2022/09/29 06:29:20;;;;;;;;;;;410.30;2355.20;;;;;;5092005;28;19908;-63
2022/09/29 06:31:46;;;;;;;;;;;410.20;2355.20;;;;;;5091465;28;19969;-64
2022/09/29 06:34:11;;;;;;;;;;;410.30;2355.20;;;;;;5091457;28;19916;-61
2022/09/29 06:39:25;;;;;;;;;;;435.30;2355.20;;;;;;5091546;28;19954;-67
2022/09/29 06:41:53;;;;;;;;;;;435.40;2355.20;;;;;;5091513;28;20312;-62
2022/09/29 06:44:23;;;;;;;;;;;435.40;2355.20;;;;;;5091688;28;19908;-64
2022/09/29 06:46:50;;;;;;;;;;;435.40;2355.20;;;;;;5091369;28;19923;-69
2022/09/29 06:49:16;;;;;;;;;;;435.20;2355.20;;;;;;5091099;28;19930;-66
2022/09/29 06:51:42;;;;;;;;;;;410.40;2355.20;;;;;;5091279;28;19935;-68
2022/09/29 06:54:12;;;;;;;;;;;410.40;2355.20;;;;;;5091297;28;20392;-66
2022/09/29 06:56:37;;;;;;;;;;;435.20;2355.20;;;;;;5090890;28;19915;-70
2022/09/29 06:59:03;;;;;;;;;;;435.50;2355.20;;;;;;5090232;28;19912;-67
2022/09/29 07:01:28;;;;;;;;;;;435.50;2355.20;;;;;;5090541;28;19908;-69
2022/09/29 07:03:54;;;;;;;;;;;435.60;2355.20;;;;;;5090716;28;19926;-65
2022/09/29 07:06:19;;;;;;;;;;;435.60;2355.20;;;;;;5091068;28;19951;-68
2022/09/29 07:08:45;;;;;;;;;;;435.70;2355.20;;;;;;5090833;28;19912;-69
2022/09/29 07:11:11;;;;;;;;;;;435.70;2355.20;;;;;;5090868;28;19908;-62
2022/09/29 07:13:37;;;;;;;;;;;435.90;2355.20;;;;;;5090878;28;19961;-62
2022/09/29 07:16:05;;;;;;;;;;;435.40;2355.20;;;;;;5090630;28;19908;-60
2022/09/29 07:18:31;;;;;;;;;;;435.30;2355.20;;;;;;5090994;28;19908;-61
2022/09/29 07:20:56;;;;;;;;;;;435.40;2355.20;;;;;;5090766;28;20378;-68
2022/09/29 07:23:22;;;;;;;;;;;435.70;2355.20;;;;;;5090850;28;19915;-61
2022/09/29 07:25:48;;;;;;;;;;;435.80;2355.20;;;;;;5090737;28;19908;-61
2022/09/29 07:28:13;;;;;;;;;;;435.90;2355.20;;;;;;5090475;28;19919;-61
2022/09/29 07:30:39;;;;;;;;;;;460.80;2380.80;;;;;;5090915;28;19953;-69
2022/09/29 07:33:04;;;;;;;;;;;460.90;2380.80;;;;;;5090402;28;20270;-61
2022/09/29 07:35:30;;;;;;;;;;;460.80;2380.80;;;;;;5090734;28;19912;-62
2022/09/29 07:37:55;;;;;;;;;;;460.90;2380.80;;;;;;5090414;28;19908;-69
2022/09/29 07:40:21;;;;;;;;;;;460.90;2380.80;;;;;;5090516;28;19969;-67
2022/09/29 07:42:47;;;;;;;;;;;461.00;2380.80;;;;;;5090791;28;20400;-62
2022/09/29 07:45:14;;;;;;;;;;;461.20;2380.80;;;;;;5090534;28;20258;-61
2022/09/29 07:47:39;;;;;;;;;;;461.20;2380.80;;;;;;5090606;28;19916;-66
2022/09/29 07:50:05;;;;;;;;;;;461.60;2380.80;;;;;;5090417;28;19915;-67
2022/09/29 07:52:31;;;;;;;;;;;461.70;2380.80;;;;;;5090397;28;20273;-61
2022/09/29 07:54:56;;;;;;;;;;;486.50;2380.80;;;;;;5090164;28;20002;-64
2022/09/29 07:57:22;;;;;;;;;;;486.70;2380.80;;;;;;5090403;28;19912;-62
2022/09/29 07:59:47;;;;;;;;;;;486.50;2380.80;;;;;;5090456;28;19915;-73
2022/09/29 08:02:13;;;;;;;;;;;486.60;2380.80;;;;;;5090109;28;19915;-59
2022/09/29 08:04:39;;;;;;;;;;;486.70;2380.80;;;;;;5090025;28;19964;-63
2022/09/29 08:07:04;;;;;;;;;;;512.10;2380.80;;;;;;5090058;28;19924;-73
2022/09/29 08:09:30;;;;;;;;;;;512.60;2380.80;;;;;;5090196;28;19915;-70
2022/09/29 08:11:55;;;;;;;;;;;512.90;2380.80;;;;;;5092370;28;19910;-72
2022/09/29 08:14:21;;;;;;;;;;;537.80;2406.40;;;;;;5094425;28;19912;-72
2022/09/29 08:16:47;;;;;;;;;;;537.80;2406.40;;;;;;5094205;28;19915;-71
2022/09/29 08:19:12;;;;;;;;;;;538.00;2406.40;;;;;;5093697;28;19912;-62
2022/09/29 08:21:38;;;;;;;;;;;538.10;2406.40;;;;;;5094262;28;19915;-70
2022/09/29 08:24:04;;;;;;;;;;;538.30;2406.40;;;;;;5093956;28;19994;-65
2022/09/29 08:26:31;;;;;;;;;;;538.10;2406.40;;;;;;5093908;28;19923;-64
2022/09/29 08:28:56;;;;;;;;;;;538.00;2406.40;;;;;;5094020;28;19915;-69
2022/09/29 08:31:22;;;;;;;;;;;538.10;2406.40;;;;;;5094377;28;19912;-63
2022/09/29 08:33:49;;;;;;;;;;;538.30;2406.40;;;;;;5093950;28;19919;-70
2022/09/29 08:36:15;;;;;;;;;;;538.00;2406.40;;;;;;5093555;28;20293;-68
2022/09/29 08:38:44;;;;;;;;;;;538.00;2406.40;;;;;;5093894;28;19912;-70
2022/09/29 08:41:27;;;;;;;;;;;538.20;2406.40;;;;;;5093547;28;19908;-70
2022/09/29 08:43:56;;;;;;;;;;;538.20;2406.40;;;;;;5093807;28;20320;-70
2022/09/29 08:46:27;;;;;;;;;;;538.30;2406.40;;;;;;5093799;28;19961;-64
2022/09/29 08:48:55;;;;;;;;;;;512.90;2380.80;;;;;;5092737;28;20349;-68
2022/09/29 08:51:35;;;;;;;;;;;512.60;2380.80;;;;;;5093282;28;20011;-69
2022/09/29 08:54:05;;;;;;;;;;;512.90;2380.80;;;;;;5093842;28;19931;-69
2022/09/29 08:56:32;;;;;;;;;;;512.70;2380.80;;;;;;5093578;28;20270;-71
2022/09/29 08:58:58;;;;;;;;;;;512.90;2380.80;;;;;;5093542;28;20250;-69
2022/09/29 09:01:37;;;;;;;;;;;538.00;2406.40;;;;;;5093216;28;20061;-69
2022/09/29 09:04:03;;;;;;;;;;;563.30;2432.00;;;;;;5093123;28;19920;-66
2022/09/29 09:06:47;;;;;;;;;;;563.50;2432.00;;;;;;5093455;28;19985;-65
2022/09/29 09:09:15;;;;;;;;;;;563.40;2432.00;;;;;;5093364;28;19912;-61
2022/09/29 09:11:50;;;;;;;;;;;563.60;2432.00;;;;;;5093177;28;20346;-59
2022/09/29 09:14:25;;;;;;;;;;;563.60;2432.00;;;;;;5093039;28;19915;-58
2022/09/29 09:17:10;;;;;;;;;;;563.80;2432.00;;;;;;5090089;28;19912;-74
2022/09/29 09:20:09;;;;;;;;;;;564.00;2432.00;;;;;;5090536;28;19923;-70
2022/09/29 09:22:44;;;;;;;;;;;563.90;2432.00;;;;;;5048016;28;19916;-71
2022/09/29 09:25:12;;;;;;;;;;;588.90;2432.00;;;;;;5049401;28;20343;-62
2022/09/29 09:27:42;;;;;;;;;;;589.20;2432.00;;;;;;5050164;28;20424;-72
2022/09/29 09:30:14;;;;;;;;;;;588.90;2432.00;;;;;;5050502;28;19908;-72
2022/09/29 09:32:49;;;;;;;;;;;589.60;2432.00;;;;;;5049593;28;20004;-71
2022/09/29 09:35:26;;;;;;;;;;;589.70;2432.00;;;;;;5049898;28;19917;-72
2022/09/29 09:37:53;;;;;;;;;;;589.40;2432.00;;;;;;5050328;28;20363;-61
2022/09/29 09:40:18;;;;;;;;;;;589.10;2432.00;;;;;;5050174;28;20270;-69
2022/09/29 09:43:03;;;;;;;;;;;589.30;2432.00;;;;;;5049893;28;19909;-66
2022/09/29 09:45:31;;;;;;;;;;;589.70;2432.00;;;;;;5050020;28;19909;-69
2022/09/29 09:48:19;;;;;;;;;;;615.30;2432.00;;;;;;5049909;28;19917;-74
2022/09/29 09:50:47;;;;;;;;;;;640.20;2432.00;;;;;;4990561;28;19910;-70
2022/09/29 09:53:33;;;;;;;;;;;640.50;2304.00;;;;;;4990644;28;19972;-60
2022/09/29 09:56:19;;;;;;;;;;;640.60;2124.80;;;;;;4990288;28;19953;-71
2022/09/29 09:58:50;;;;;;;;;;;640.60;2022.40;;;;;;5000296;28;20004;-71
2022/09/29 10:01:16;;;;;;;;;;;640.40;2073.60;;;;;;5010202;28;19909;-70
2022/09/29 10:03:42;;;;;;;;;;;640.20;2124.80;;;;;;5009897;28;19971;-70
2022/09/29 10:06:08;;;;;;;;;;;615.30;2073.60;;;;;;5010275;28;19920;-72
2022/09/29 10:08:38;;;;;;;;;;;615.30;2073.60;;;;;;5009835;28;20000;-60
2022/09/29 10:11:22;;;;;;;;;;;640.00;2048.00;;;;;;5009825;28;19920;-72
2022/09/29 10:13:51;;;;;;;;;;;640.60;2048.00;;;;;;5010180;28;19914;-72
2022/09/29 10:16:19;;;;;;;;;;;665.70;1945.60;;;;;;5009820;28;20302;-73
2022/09/29 10:18:47;;;;;;;;;;;666.20;1894.40;;;;;;5009695;28;19910;-63
2022/09/29 10:21:30;;;;;;;;;;;666.20;1868.80;;;;;;5009886;28;19969;-66
2022/09/29 10:23:58;;;;;;;;;;;666.30;1971.20;;;;;;5009601;28;20359;-72
2022/09/29 10:26:25;;;;;;;;;;;666.50;1996.80;;;;;;5009434;28;19914;-72
2022/09/29 10:28:57;;;;;;;;;;;666.30;1945.60;;;;;;5047796;28;19913;-72
2022/09/29 10:31:25;;;;;;;;;;;666.00;1971.20;;;;;;5049169;28;19967;-60
2022/09/29 10:33:59;;;;;;;;;;;665.60;1996.80;;;;;;5049160;28;19916;-72
2022/09/29 10:36:29;;;;;;;;;;;665.70;1996.80;;;;;;5065341;28;20340;-72
2022/09/29 10:38:55;;;;;;;;;;;640.50;1971.20;;;;;;5071295;28;20007;-73
2022/09/29 10:41:21;;;;;;;;;;;640.40;1971.20;;;;;;5071363;28;19908;-74
2022/09/29 10:43:48;;;;;;;;;;;640.20;1971.20;;;;;;5071484;28;19909;-72
2022/09/29 10:46:35;;;;;;;;;;;640.40;2073.60;;;;;;5071008;28;19908;-62
2022/09/29 10:49:08;;;;;;;;;;;640.40;2022.40;;;;;;5071110;28;19908;-73
2022/09/29 10:51:33;;;;;;;;;;;640.50;1996.80;;;;;;5070903;28;19908;-68
2022/09/29 10:54:05;;;;;;;;;;;640.40;1996.80;;;;;;5071197;28;20007;-72
2022/09/29 10:56:31;;;;;;;;;;;640.40;2022.40;;;;;;5070807;28;19908;-73
2022/09/29 10:58:58;;;;;;;;;;;640.30;2022.40;;;;;;5070860;28;19916;-73
2022/09/29 11:01:25;;;;;;;;;;;640.40;2048.00;;;;;;5070583;28;20362;-74
2022/09/29 11:04:00;;;;;;;;;;;640.50;2048.00;;;;;;5070763;28;19989;-60
2022/09/29 11:06:39;;;;;;;;;;;640.60;2022.40;;;;;;5070918;28;19939;-72
2022/09/29 11:09:17;;;;;;;;;;;640.50;1945.60;;;;;;5070745;28;19912;-68
2022/09/29 11:11:45;;;;;;;;;;;640.50;1945.60;;;;;;5070490;28;20019;-61
2022/09/29 11:14:31;;;;;;;;;;;640.50;1945.60;;;;;;5070969;28;20050;-69
2022/09/29 11:17:00;;;;;;;;;;;640.50;1971.20;;;;;;5070226;28;19916;-72
2022/09/29 11:19:28;;;;;;;;;;;640.50;1971.20;;;;;;5070434;28;19969;-71
2022/09/29 11:22:05;;;;;;;;;;;640.50;1894.40;;;;;;5070386;28;19915;-66
2022/09/29 11:24:49;;;;;;;;;;;640.50;1920.00;;;;;;5070621;28;19991;-72
2022/09/29 11:27:21;;;;;;;;;;;640.60;1894.40;;;;;;5070323;28;19923;-72
2022/09/29 11:29:57;;;;;;;;;;;640.70;1945.60;;;;;;5070529;28;19913;-71
2022/09/29 11:32:39;;;;;;;;;;;640.80;1945.60;;;;;;5070390;28;19995;-68
2022/09/29 11:35:05;;;;;;;;;;;640.90;1920.00;;;;;;5070241;28;19923;-71
2022/09/29 11:37:33;;;;;;;;;;;640.90;1868.80;;;;;;5070618;28;19909;-67
2022/09/29 11:40:19;;;;;;;;;;;640.70;1868.80;;;;;;5070410;28;19934;-62
2022/09/29 11:42:48;;;;;;;;;;;640.90;1894.40;;;;;;5070311;28;19915;-72
2022/09/29 11:45:17;;;;;;;;;;;640.90;1843.20;;;;;;5070379;28;19908;-72
2022/09/29 11:48:11;;;;;;;;;;;640.80;1868.80;;;;;;5074169;28;19928;-67
2022/09/29 11:50:58;;;;;;;;;;;665.70;1894.40;;;;;;5074219;28;20022;-67
2022/09/29 11:53:32;;;;;;;;;;;665.80;1920.00;;;;;;5067146;28;19912;-69
2022/09/29 11:56:16;;;;;;;;;;;665.70;1945.60;;;;;;5074158;28;19915;-72
2022/09/29 11:58:56;;;;;;;;;;;665.60;1920.00;;;;;;5074555;28;19913;-72
2022/09/29 12:01:25;;;;;;;;;;;665.60;1843.20;;;;;;5074411;28;19913;-66
2022/09/29 12:03:50;;;;;;;;;;;665.60;1817.60;;;;;;5074433;28;20281;-72
2022/09/29 12:06:28;;;;;;;;;;;665.70;1792.00;;;;;;5073867;28;21888;-71
2022/09/29 12:08:55;;;;;;;;;;;666.00;1792.00;;;;;;5073969;28;19912;-59
2022/09/29 12:11:36;;;;;;;;;;;666.50;1817.60;;;;;;5074347;28;19916;-71
2022/09/29 12:14:01;;;;;;;;;;;691.20;1740.80;;;;;;5074168;28;19908;-72
2022/09/29 12:16:31;;;;;;;;;;;691.30;1817.60;;;;;;5074282;28;19908;-67
2022/09/29 12:19:15;;;;;;;;;;;691.40;1792.00;;;;;;5073776;28;19999;-71
2022/09/29 12:21:44;;;;;;;;;;;691.40;1817.60;;;;;;5073888;28;19931;-69
2022/09/29 12:24:13;;;;;;;;;;;691.80;1817.60;;;;;;5074196;28;19995;-71
2022/09/29 12:26:39;;;;;;;;;;;691.80;1740.80;;;;;;5074060;28;19937;-71
2022/09/29 12:29:26;;;;;;;;;;;691.90;1664.00;;;;;;5073622;28;19917;-72
2022/09/29 12:31:53;;;;;;;;;;;692.00;1664.00;;;;;;5073470;28;20278;-63
2022/09/29 12:34:33;;;;;;;;;;;691.80;1715.20;;;;;;5073670;28;19912;-72
2022/09/29 12:37:06;;;;;;;;;;;692.10;1766.40;;;;;;5073624;28;20286;-67
2022/09/29 12:39:32;;;;;;;;;;;692.10;1689.60;;;;;;5073349;28;19923;-61
2022/09/29 12:42:16;;;;;;;;;;;692.00;1689.60;;;;;;5073680;28;19999;-72
2022/09/29 12:45:10;;;;;;;;;;;691.90;1715.20;;;;;;5073523;28;20003;-65
2022/09/29 12:47:39;;;;;;;;;;;691.40;1715.20;;;;;;5030944;28;19924;-67
2022/09/29 12:50:08;;;;;;;;;;;691.40;1715.20;;;;;;5031253;28;20336;-72
2022/09/29 12:52:41;;;;;;;;;;;691.40;1715.20;;;;;;5031027;28;19909;-71
2022/09/29 12:55:14;;;;;;;;;;;691.40;1740.80;;;;;;5031187;28;20402;-72
2022/09/29 12:57:41;;;;;;;;;;;666.50;1715.20;;;;;;5031122;28;19997;-71
2022/09/29 13:00:10;;;;;;;;;;;666.30;1792.00;;;;;;5031042;28;19916;-70
2022/09/29 13:02:45;;;;;;;;;;;666.50;1689.60;;;;;;5030803;28;20004;-72
2022/09/29 13:05:29;;;;;;;;;;;666.50;1740.80;;;;;;5030789;28;20387;-71
2022/09/29 13:08:10;;;;;;;;;;;666.50;1689.60;;;;;;5030932;28;19921;-72
2022/09/29 13:10:42;;;;;;;;;;;691.20;1817.60;;;;;;5030755;28;20007;-67
2022/09/29 13:13:16;;;;;;;;;;;691.20;1740.80;;;;;;5030958;28;20004;-72
2022/09/29 13:15:51;;;;;;;;;;;666.50;1715.20;;;;;;5030516;28;19923;-68
2022/09/29 13:18:22;;;;;;;;;;;666.50;1715.20;;;;;;5013713;28;19909;-70
2022/09/29 13:21:03;;;;;;;;;;;691.20;1715.20;;;;;;5030950;28;19909;-72
2022/09/29 13:23:30;;;;;;;;;;;691.30;1689.60;;;;;;5043023;28;20286;-73
2022/09/29 13:25:55;;;;;;;;;;;691.40;1766.40;;;;;;5072664;28;19975;-72
2022/09/29 13:28:32;;;;;;;;;;;691.40;1792.00;;;;;;5072831;28;19943;-72
2022/09/29 13:31:01;;;;;;;;;;;691.40;1689.60;;;;;;5072468;28;20386;-73
2022/09/29 13:33:27;;;;;;;;;;;691.60;1689.60;;;;;;5072391;28;20350;-73
2022/09/29 13:35:53;;;;;;;;;;;691.60;1715.20;;;;;;5072457;28;19916;-67
2022/09/29 13:38:24;;;;;;;;;;;691.60;1689.60;;;;;;5072790;28;19915;-73
2022/09/29 13:41:08;;;;;;;;;;;691.80;1689.60;;;;;;5072549;28;19909;-73
2022/09/29 13:43:49;;;;;;;;;;;692.00;1715.20;;;;;;5072183;28;19916;-72
2022/09/29 13:46:33;;;;;;;;;;;692.10;1664.00;;;;;;5072086;28;20362;-73
2022/09/29 13:49:07;;;;;;;;;;;692.00;1689.60;;;;;;5072601;28;19973;-73
2022/09/29 13:51:44;;;;;;;;;;;692.00;1740.80;;;;;;5072022;28;19934;-69
2022/09/29 13:54:23;;;;;;;;;;;691.80;1689.60;;;;;;5072238;28;20287;-66
2022/09/29 13:57:06;;;;;;;;;;;691.40;1715.20;;;;;;5072370;28;20251;-70
2022/09/29 13:59:32;;;;;;;;;;;691.30;1715.20;;;;;;5071877;28;19965;-61